Time;durP1;ratioP1;P1;durP2;ratioP2;P2;SDS_P1;SDS_P2;PMS_P1;PMS_P2;Temp;Humidity;BMP_temperature;BMP_pressure;BME280_temperature;BME280_humidity;BME280_pressure;Samples;Min_cycle;Max_cycle;Signal;HPM_P1;HPM_P2
2021/12/31 00:02:39;;;;;;;0.40;0.30;;;11.60;1.40;;;12.76;100.00;96057.47;642703;218;31822;-76
2021/12/31 00:05:21;;;;;;;0.40;0.30;;;11.60;1.40;;;12.77;100.00;96063.45;616525;222;42623;-78
2021/12/31 00:08:02;;;;;;;0.40;0.30;;;11.60;1.40;;;12.77;100.00;96064.16;647216;216;31716;-76
2021/12/31 00:10:44;;;;;;;0.40;0.20;;;11.60;1.40;;;12.73;100.00;96067.23;648031;216;42103;-77
2021/12/31 00:13:27;;;;;;;0.40;0.20;;;11.60;1.40;;;12.79;100.00;96066.41;646449;213;42431;-77
2021/12/31 00:16:08;;;;;;;0.40;0.20;;;11.60;1.40;;;12.73;100.00;96067.55;647225;212;31454;-78
2021/12/31 00:18:56;;;;;;;0.40;0.20;;;11.50;1.40;;;12.76;100.00;96075.05;647344;212;41590;-77
2021/12/31 00:21:44;;;;;;;0.40;0.20;;;11.40;1.40;;;12.70;100.00;96069.68;647226;215;31484;-77
2021/12/31 00:24:25;;;;;;;0.40;0.20;;;11.40;1.40;;;12.75;100.00;96074.00;646626;216;42295;-77
2021/12/31 00:27:04;;;;;;;0.40;0.20;;;11.30;1.40;;;12.65;100.00;96070.92;647397;212;42104;-76
2021/12/31 00:29:49;;;;;;;0.50;0.40;;;11.30;1.40;;;12.53;100.00;96071.35;646176;212;31489;-78
2021/12/31 00:32:31;;;;;;;0.40;0.20;;;11.30;1.40;;;12.50;100.00;96070.92;647399;212;31560;-76
2021/12/31 00:35:52;;;;;;;0.40;0.20;;;11.30;1.40;;;12.57;100.00;96077.69;646661;212;31517;-77
2021/12/31 00:38:37;;;;;;;0.40;0.20;;;11.30;1.40;;;12.47;100.00;96074.02;647769;216;31473;-76
2021/12/31 00:41:22;;;;;;;0.40;0.30;;;11.30;1.40;;;12.40;100.00;96072.88;647737;216;42493;-77
2021/12/31 00:44:03;;;;;;;0.40;0.20;;;11.20;1.40;;;12.34;100.00;96074.09;645626;216;36574;-75
2021/12/31 00:46:48;;;;;;;0.50;0.20;;;11.30;1.40;;;12.43;100.00;96075.27;646626;212;31631;-75
2021/12/31 00:49:30;;;;;;;0.40;0.20;;;11.30;1.40;;;12.41;100.00;96076.13;619872;226;41765;-76
2021/12/31 00:52:12;;;;;;;0.40;0.20;;;11.20;1.40;;;12.40;100.00;96074.34;647281;212;31497;-76
2021/12/31 00:54:53;;;;;;;0.50;0.35;;;11.20;1.40;;;12.35;100.00;96078.13;620082;222;33668;-75
2021/12/31 00:57:35;;;;;;;0.40;0.20;;;11.20;1.40;;;12.33;100.00;96083.45;620593;222;31827;-76
2021/12/31 01:00:17;;;;;;;0.50;0.30;;;11.20;1.40;;;12.27;100.00;96080.27;647575;212;42102;-75
2021/12/31 01:02:59;;;;;;;0.40;0.30;;;11.20;1.40;;;12.32;100.00;96073.30;647619;216;35338;-74
2021/12/31 01:05:40;;;;;;;1.00;0.30;;;11.20;1.40;;;12.35;100.00;96074.43;641350;212;31673;-75
2021/12/31 01:11:00;;;;;;;0.40;0.20;;;11.30;1.40;;;12.34;100.00;96075.70;647663;216;42109;-76
2021/12/31 01:16:38;;;;;;;0.40;0.20;;;11.20;1.40;;;12.27;100.00;96080.84;647156;212;31504;-76
2021/12/31 01:22:11;;;;;;;0.40;0.20;;;11.20;1.40;;;12.31;100.00;96093.87;648147;216;31464;-75
2021/12/31 01:24:53;;;;;;;0.53;0.43;;;11.10;1.40;;;12.31;100.00;96091.86;647103;216;31585;-75
2021/12/31 01:30:12;;;;;;;0.40;0.30;;;11.30;1.40;;;12.28;100.00;96084.73;646430;212;31474;-75
2021/12/31 01:32:55;;;;;;;0.60;0.30;;;11.30;1.40;;;12.32;100.00;96085.26;646795;213;33390;-76
2021/12/31 01:35:50;;;;;;;0.50;0.30;;;11.30;1.40;;;12.22;100.00;96084.05;619756;222;31828;-75
2021/12/31 01:38:32;;;;;;;0.40;0.28;;;11.20;1.40;;;12.20;100.00;96079.03;647032;216;42116;-75
2021/12/31 01:41:14;;;;;;;1.50;0.40;;;11.10;1.40;;;12.24;100.00;96083.31;646856;216;31524;-76
2021/12/31 01:43:56;;;;;;;0.40;0.20;;;11.10;1.40;;;12.21;100.00;96087.18;620645;226;31794;-75
2021/12/31 01:46:40;;;;;;;0.50;0.32;;;11.10;1.40;;;12.21;100.00;96083.75;646698;212;31476;-75
2021/12/31 01:49:22;;;;;;;0.40;0.30;;;11.00;1.40;;;12.13;100.00;96091.98;647366;216;38704;-78
2021/12/31 01:52:04;;;;;;;0.40;0.30;;;11.00;1.40;;;12.06;100.00;96097.09;620465;222;32335;-75
2021/12/31 01:54:46;;;;;;;0.40;0.40;;;10.80;1.40;;;12.06;100.00;96091.16;643745;213;31495;-77
2021/12/31 01:57:28;;;;;;;0.70;0.20;;;10.70;1.40;;;12.04;100.00;96094.78;647126;212;32711;-76
2021/12/31 02:00:11;;;;;;;0.40;0.20;;;10.70;1.40;;;11.97;100.00;96088.27;649413;216;31554;-78
2021/12/31 02:02:53;;;;;;;0.40;0.20;;;10.80;1.40;;;11.94;100.00;96085.76;647306;216;42231;-75
2021/12/31 02:05:35;;;;;;;0.40;0.30;;;10.80;1.40;;;11.97;100.00;96084.47;640749;216;33355;-75
2021/12/31 02:08:18;;;;;;;0.40;0.20;;;10.80;1.40;;;12.06;100.00;96082.63;620286;222;32378;-76
2021/12/31 02:10:59;;;;;;;0.50;0.30;;;10.70;1.40;;;12.04;100.00;96082.23;648200;216;31866;-76
2021/12/31 02:13:41;;;;;;;0.40;0.25;;;10.70;1.40;;;12.00;100.00;96087.23;619250;222;31850;-77
2021/12/31 02:16:27;;;;;;;0.40;0.20;;;10.70;1.40;;;12.04;100.00;96085.09;647971;216;32025;-76
2021/12/31 02:24:22;;;;;;;0.40;0.20;;;10.70;1.40;;;11.95;100.00;96098.20;646504;212;33237;-75
2021/12/31 02:27:02;;;;;;;0.50;0.40;;;10.70;1.40;;;11.90;100.00;96095.21;646629;216;31541;-78
2021/12/31 02:29:47;;;;;;;0.40;0.20;;;10.80;1.40;;;11.89;100.00;96093.48;647549;216;36469;-75
2021/12/31 02:32:29;;;;;;;0.40;0.20;;;10.80;1.40;;;11.98;100.00;96091.45;646959;212;42166;-75
2021/12/31 02:35:54;;;;;;;0.50;0.30;;;10.80;1.40;;;11.94;100.00;96097.67;646855;212;32147;-78
2021/12/31 02:38:36;;;;;;;0.40;0.20;;;10.80;1.40;;;11.94;100.00;96089.36;619420;222;32542;-75
2021/12/31 02:41:18;;;;;;;0.40;0.22;;;10.80;1.40;;;11.88;100.00;96093.66;647824;216;31614;-75
2021/12/31 02:44:00;;;;;;;0.40;0.20;;;10.80;1.40;;;11.90;100.00;96093.30;647168;212;36117;-75
2021/12/31 02:46:42;;;;;;;1.90;0.40;;;10.80;1.40;;;11.92;100.00;96089.76;645997;216;31477;-76
2021/12/31 02:49:24;;;;;;;0.40;0.30;;;10.90;1.40;;;11.96;100.00;96084.10;646304;216;31475;-77
2021/12/31 02:52:08;;;;;;;0.40;0.20;;;10.90;1.40;;;11.90;100.00;96084.74;618956;226;32657;-77
2021/12/31 02:54:50;;;;;;;0.40;0.30;;;10.90;1.40;;;11.89;100.00;96082.83;647779;212;42206;-78
2021/12/31 02:57:31;;;;;;;0.40;0.20;;;10.90;1.40;;;11.89;100.00;96081.20;646716;216;33294;-76
2021/12/31 03:00:13;;;;;;;0.40;0.20;;;10.90;1.40;;;11.89;100.00;96077.88;619924;226;31872;-75
2021/12/31 03:05:34;;;;;;;0.45;0.28;;;10.90;1.40;;;11.92;100.00;96076.55;647729;213;31565;-75
2021/12/31 03:08:16;;;;;;;0.60;0.40;;;10.90;1.40;;;11.97;100.00;96076.48;646803;212;32461;-77
2021/12/31 03:10:58;;;;;;;0.40;0.20;;;10.90;1.40;;;11.94;100.00;96076.74;646815;216;31471;-76
2021/12/31 03:13:39;;;;;;;0.40;0.20;;;11.00;1.40;;;11.98;100.00;96069.83;647940;216;32664;-76
2021/12/31 03:16:21;;;;;;;0.70;0.40;;;11.00;1.40;;;12.02;100.00;96066.39;647847;212;31662;-76
2021/12/31 03:19:03;;;;;;;0.40;0.30;;;11.00;1.40;;;12.04;100.00;96061.95;646182;216;35653;-76
2021/12/31 03:21:44;;;;;;;0.40;0.30;;;11.00;1.40;;;12.07;100.00;96061.08;619463;222;31862;-77
2021/12/31 03:24:26;;;;;;;0.50;0.40;;;11.00;1.40;;;12.04;100.00;96059.89;648322;216;31688;-77
2021/12/31 03:27:08;;;;;;;0.40;0.20;;;11.00;1.40;;;11.99;100.00;96059.10;647826;216;31469;-76
2021/12/31 03:29:50;;;;;;;0.40;0.30;;;11.00;1.40;;;11.97;100.00;96067.23;647768;212;33417;-76
2021/12/31 03:32:32;;;;;;;0.40;0.30;;;11.00;1.40;;;11.97;100.00;96070.87;647152;216;34428;-77
2021/12/31 03:35:57;;;;;;;0.50;0.30;;;10.90;1.40;;;11.89;100.00;96064.25;646820;212;31469;-76
2021/12/31 03:38:45;;;;;;;0.50;0.40;;;11.00;1.40;;;11.96;100.00;96065.94;647803;216;31472;-77
2021/12/31 03:41:26;;;;;;;0.40;0.20;;;11.00;1.40;;;11.94;100.00;96056.08;647380;212;42126;-76
2021/12/31 03:44:08;;;;;;;0.45;0.25;;;10.90;1.40;;;11.90;100.00;96054.91;647158;216;32622;-78
2021/12/31 03:46:53;;;;;;;0.40;0.30;;;10.80;1.40;;;11.89;100.00;96050.66;646783;212;31686;-77
2021/12/31 03:49:35;;;;;;;0.40;0.30;;;10.70;1.40;;;11.87;100.00;96046.67;619091;226;31803;-78
2021/12/31 03:52:16;;;;;;;0.40;0.30;;;10.70;1.40;;;11.85;100.00;96050.57;646616;216;40246;-77
2021/12/31 03:54:59;;;;;;;0.40;0.30;;;10.60;1.40;;;11.84;100.00;96057.97;647759;212;31702;-78
2021/12/31 03:57:41;;;;;;;0.40;0.30;;;10.60;1.40;;;11.83;100.00;96052.06;636018;216;33641;-77
2021/12/31 04:00:22;;;;;;;0.60;0.30;;;10.50;1.40;;;11.77;100.00;96050.18;619173;226;33912;-78
2021/12/31 04:03:08;;;;;;;0.40;0.30;;;10.40;1.40;;;11.74;100.00;96046.16;646391;216;31481;-76
2021/12/31 04:05:51;;;;;;;0.40;0.30;;;10.40;1.40;;;11.61;100.00;96044.34;641565;216;31665;-77
2021/12/31 04:08:32;;;;;;;0.40;0.30;;;10.40;1.40;;;11.58;100.00;96042.86;646816;216;32286;-76
2021/12/31 04:11:14;;;;;;;0.40;0.20;;;10.30;1.40;;;11.57;100.00;96044.67;648012;212;31548;-76
2021/12/31 04:13:56;;;;;;;0.70;0.70;;;10.30;1.40;;;11.55;100.00;96040.36;648367;216;31476;-76
2021/12/31 04:16:37;;;;;;;1.50;0.30;;;10.30;1.40;;;11.55;100.00;96038.41;647255;212;31467;-76
2021/12/31 04:19:19;;;;;;;0.50;0.40;;;10.20;1.40;;;11.52;100.00;96032.94;648131;212;32088;-77
2021/12/31 04:22:01;;;;;;;0.50;0.30;;;10.20;1.40;;;11.53;100.00;96034.20;647754;216;31489;-77
2021/12/31 04:27:39;;;;;;;0.40;0.30;;;10.10;1.40;;;11.40;100.00;96025.59;647137;212;31502;-77
2021/12/31 04:30:23;;;;;;;0.40;0.20;;;10.00;1.40;;;11.30;100.00;96025.50;647356;212;31544;-76
2021/12/31 04:35:54;;;;;;;1.23;0.52;;;10.00;1.40;;;11.22;100.00;96023.55;646966;212;32049;-76
2021/12/31 04:38:36;;;;;;;0.65;0.47;;;10.00;1.40;;;11.25;100.00;96018.34;632686;221;31787;-77
2021/12/31 04:41:19;;;;;;;0.50;0.30;;;10.00;1.40;;;11.23;100.00;96019.30;620421;222;32094;-76
2021/12/31 04:44:00;;;;;;;0.40;0.30;;;10.00;1.40;;;11.26;100.00;96018.70;646942;216;31754;-76
2021/12/31 04:46:48;;;;;;;0.40;0.20;;;10.00;1.40;;;11.25;100.00;96021.61;619168;222;33832;-78
2021/12/31 04:49:32;;;;;;;0.60;0.60;;;10.10;1.40;;;11.31;100.00;96016.89;619023;226;32245;-76
2021/12/31 04:52:14;;;;;;;0.50;0.40;;;10.10;1.40;;;11.29;100.00;96013.51;646560;212;31549;-78
2021/12/31 04:54:55;;;;;;;0.40;0.30;;;10.10;1.40;;;11.33;100.00;96015.39;647298;216;31474;-78
2021/12/31 04:57:38;;;;;;;0.50;0.30;;;10.10;1.40;;;11.31;100.00;96017.59;647448;216;31481;-77
2021/12/31 05:00:23;;;;;;;0.50;0.40;;;10.10;1.40;;;11.34;100.00;96013.99;646928;216;31494;-76
2021/12/31 05:03:09;;;;;;;0.50;0.40;;;10.10;1.40;;;11.44;100.00;96011.02;647633;216;31506;-76
2021/12/31 05:05:51;;;;;;;0.50;0.50;;;10.00;1.40;;;11.33;100.00;96014.59;639743;216;31637;-75
2021/12/31 05:08:36;;;;;;;0.40;0.30;;;10.00;1.40;;;11.21;100.00;96017.80;618619;226;32463;-75
2021/12/31 05:11:18;;;;;;;0.60;0.40;;;9.90;1.40;;;11.16;100.00;96012.02;646808;212;31790;-76
2021/12/31 05:14:00;;;;;;;1.00;0.50;;;9.70;1.40;;;11.07;100.00;96010.39;646921;216;31669;-78
2021/12/31 05:16:42;;;;;;;0.40;0.20;;;9.50;1.40;;;10.77;100.00;96009.23;646544;216;31476;-75
2021/12/31 05:19:24;;;;;;;0.40;0.30;;;9.30;1.40;;;10.55;100.00;96009.17;647846;216;31518;-76
2021/12/31 05:22:05;;;;;;;0.40;0.40;;;9.10;1.40;;;10.47;100.00;96007.70;646203;216;31520;-76
2021/12/31 05:24:47;;;;;;;0.40;0.20;;;9.10;1.40;;;10.25;100.00;96010.75;647187;212;31514;-76
2021/12/31 05:27:29;;;;;;;0.40;0.20;;;9.00;1.40;;;10.06;100.00;96012.97;643233;218;31497;-75
2021/12/31 05:30:11;;;;;;;0.40;0.30;;;8.90;1.40;;;9.95;100.00;96008.50;646791;216;42114;-78
2021/12/31 05:32:57;;;;;;;0.40;0.20;;;8.80;1.40;;;9.93;100.00;96010.05;647817;212;31516;-77
2021/12/31 05:35:50;;;;;;;2.10;0.40;;;8.80;1.40;;;9.78;100.00;96009.72;646798;216;31602;-77
2021/12/31 05:38:32;;;;;;;0.40;0.20;;;8.80;1.40;;;9.76;100.00;96009.37;619680;226;42469;-77
2021/12/31 05:41:14;;;;;;;0.50;0.30;;;8.80;1.40;;;9.67;100.00;96006.31;647207;212;31590;-77
2021/12/31 05:43:55;;;;;;;0.77;0.30;;;8.80;1.40;;;9.64;100.00;96008.26;620516;226;42712;-76
2021/12/31 05:46:37;;;;;;;0.40;0.20;;;8.70;1.40;;;9.53;100.00;96008.52;646682;216;42700;-76
2021/12/31 05:49:25;;;;;;;0.60;0.50;;;8.60;1.40;;;9.40;100.00;96010.55;647288;216;31506;-77
2021/12/31 05:52:08;;;;;;;0.80;0.60;;;8.50;1.40;;;9.43;100.00;96010.96;646705;216;42185;-77
2021/12/31 05:54:50;;;;;;;0.40;0.30;;;8.60;1.40;;;9.41;100.00;96009.19;647312;212;31787;-76
2021/12/31 06:00:10;;;;;;;0.50;0.20;;;8.40;1.40;;;9.49;100.00;96004.55;647656;212;31615;-78
2021/12/31 06:02:54;;;;;;;0.50;0.50;;;8.40;1.40;;;9.44;100.00;96007.86;647347;216;31520;-78
2021/12/31 06:05:36;;;;;;;0.60;0.40;;;8.30;1.40;;;9.40;100.00;96000.59;615604;222;32168;-76
2021/12/31 06:08:18;;;;;;;0.50;0.40;;;8.20;1.40;;;9.37;100.00;96003.92;646200;212;31618;-76
2021/12/31 06:10:59;;;;;;;0.40;0.30;;;8.20;1.40;;;9.36;100.00;96005.88;648367;216;31619;-76
2021/12/31 06:13:43;;;;;;;0.70;0.50;;;8.20;1.40;;;9.28;100.00;96005.27;647360;216;31480;-78
2021/12/31 06:16:23;;;;;;;0.40;0.32;;;8.20;1.40;;;9.28;100.00;96010.08;646816;213;31504;-76
2021/12/31 06:19:05;;;;;;;0.80;0.40;;;8.30;1.40;;;9.28;100.00;96006.61;646936;216;31476;-77
2021/12/31 06:21:47;;;;;;;0.60;0.60;;;8.20;1.40;;;9.31;100.00;96008.34;646516;216;31867;-77
2021/12/31 06:24:29;;;;;;;0.40;0.20;;;8.20;1.40;;;9.40;100.00;96011.85;646788;216;31833;-78
2021/12/31 06:27:11;;;;;;;0.53;0.30;;;8.30;1.40;;;9.46;100.00;96016.89;620343;222;32039;-76
2021/12/31 06:29:53;;;;;;;0.40;0.20;;;8.40;1.40;;;9.50;100.00;96016.34;646248;216;31702;-75
2021/12/31 06:32:34;;;;;;;0.80;0.50;;;8.50;1.40;;;9.54;100.00;96017.88;647004;216;31507;-78
2021/12/31 06:35:52;;;;;;;0.40;0.30;;;8.50;1.40;;;9.53;100.00;96018.48;647608;212;31659;-75
2021/12/31 06:38:34;;;;;;;0.70;0.20;;;8.50;1.40;;;9.48;100.00;96020.77;618484;226;31787;-76
2021/12/31 06:41:16;;;;;;;0.40;0.30;;;8.50;1.40;;;9.42;100.00;96021.41;646929;212;31520;-75
2021/12/31 06:43:57;;;;;;;0.40;0.20;;;8.20;1.40;;;9.33;100.00;96022.19;646974;212;31595;-75
2021/12/31 06:46:40;;;;;;;0.40;0.20;;;8.00;1.40;;;9.07;100.00;96024.42;646823;212;31591;-76
2021/12/31 06:49:22;;;;;;;0.40;0.20;;;7.70;1.40;;;9.14;100.00;96030.20;647261;212;31489;-78
2021/12/31 06:52:05;;;;;;;0.40;0.20;;;7.70;1.40;;;9.20;100.00;96040.87;646849;216;31597;-75
2021/12/31 06:54:47;;;;;;;0.40;0.20;;;7.60;1.40;;;9.11;100.00;96042.66;647621;216;31658;-75
2021/12/31 06:57:28;;;;;;;0.40;0.20;;;7.60;1.40;;;9.11;100.00;96042.61;647043;213;32052;-77
2021/12/31 07:00:12;;;;;;;0.60;0.50;;;7.60;1.40;;;9.14;100.00;96043.13;646254;216;32125;-76
2021/12/31 07:03:11;;;;;;;0.40;0.20;;;7.60;1.40;;;9.10;100.00;96041.34;645775;212;31634;-76
2021/12/31 07:05:53;;;;;;;0.40;0.20;;;7.50;1.40;;;8.92;100.00;96038.74;643252;216;31718;-76
2021/12/31 07:08:38;;;;;;;0.40;0.40;;;7.50;1.40;;;8.97;100.00;96030.23;619787;226;31843;-80
2021/12/31 07:11:22;;;;;;;0.40;0.30;;;7.70;1.40;;;9.04;100.00;96024.94;646957;212;31506;-76
2021/12/31 07:14:08;;;;;;;0.40;0.20;;;7.80;1.40;;;9.05;100.00;96022.06;646749;216;42134;-80
2021/12/31 07:16:56;;;;;;;0.40;0.30;;;7.80;1.40;;;8.91;100.00;96017.73;645869;216;31502;-76
2021/12/31 07:19:39;;;;;;;0.40;0.20;;;7.50;1.40;;;8.83;100.00;96014.81;646602;216;31499;-77
2021/12/31 07:22:21;;;;;;;0.60;0.30;;;7.50;1.40;;;8.90;100.00;96011.58;647514;216;31661;-78
2021/12/31 07:25:09;;;;;;;0.40;0.20;;;7.70;1.40;;;8.83;100.00;96017.36;646504;216;31524;-76
2021/12/31 07:27:57;;;;;;;0.70;0.60;;;7.30;1.40;;;8.63;100.00;96021.55;647172;212;31484;-78
2021/12/31 07:30:44;;;;;;;0.40;0.20;;;7.00;1.40;;;8.54;100.00;96019.56;646912;212;31520;-76
2021/12/31 07:35:51;;;;;;;0.40;0.20;;;7.00;1.40;;;8.53;100.00;96019.34;620968;226;31861;-78
2021/12/31 07:38:36;;;;;;;0.40;0.20;;;7.30;1.40;;;8.57;100.00;96017.69;646546;216;31483;-78
2021/12/31 07:41:15;;;;;;;0.40;0.20;;;7.40;1.40;;;8.66;100.00;96016.29;647317;216;31469;-79
2021/12/31 07:43:57;;;;;;;0.40;0.22;;;7.60;1.40;;;8.70;100.00;96020.81;646073;212;31474;-80
2021/12/31 07:46:43;;;;;;;0.40;0.20;;;7.70;1.40;;;8.84;100.00;96021.30;647121;216;31464;-76
2021/12/31 07:49:22;;;;;;;0.40;0.20;;;8.00;1.40;;;8.95;100.00;96018.34;618405;226;32000;-76
2021/12/31 07:52:06;;;;;;;0.40;0.20;;;8.00;1.40;;;9.00;100.00;96018.91;619261;226;31853;-79
2021/12/31 07:54:54;;;;;;;0.40;0.20;;;8.10;1.40;;;9.06;100.00;96017.46;618939;226;31861;-76
2021/12/31 07:57:36;;;;;;;0.40;0.20;;;8.10;1.40;;;9.14;100.00;96023.66;646014;216;31680;-76
2021/12/31 08:00:24;;;;;;;0.70;0.53;;;8.10;1.40;;;9.23;100.00;96028.13;647101;216;31480;-78
2021/12/31 08:03:06;;;;;;;0.40;0.20;;;8.20;1.40;;;9.35;100.00;96028.67;648447;216;31468;-79
2021/12/31 08:05:48;;;;;;;0.40;0.20;;;8.30;1.40;;;9.37;100.00;96029.19;614308;222;31966;-79
2021/12/31 08:08:36;;;;;;;0.40;0.20;;;8.40;1.40;;;9.45;100.00;96036.38;618864;222;32058;-76
2021/12/31 08:11:23;;;;;;;0.50;0.30;;;8.50;1.40;;;9.63;100.00;96039.30;648903;212;31506;-80
2021/12/31 08:14:11;;;;;;;0.40;0.20;;;8.60;1.40;;;9.72;100.00;96047.69;646240;212;31530;-76
2021/12/31 08:16:59;;;;;;;0.60;0.30;;;8.60;1.40;;;9.86;100.00;96053.16;646013;216;31501;-77
2021/12/31 08:19:41;;;;;;;0.40;0.30;;;8.50;1.40;;;9.71;100.00;96053.11;619245;226;31863;-80
2021/12/31 08:22:23;;;;;;;0.47;0.27;;;8.50;1.40;;;9.92;100.00;96053.55;620068;226;31852;-77
2021/12/31 08:25:06;;;;;;;0.40;0.20;;;8.60;1.40;;;9.97;100.00;96062.59;646760;212;31908;-79
2021/12/31 08:27:54;;;;;;;0.40;0.20;;;8.70;1.40;;;10.11;100.00;96061.24;646232;216;32749;-76
2021/12/31 08:30:36;;;;;;;0.80;0.80;;;8.80;1.40;;;10.16;100.00;96062.28;647411;216;31629;-76
2021/12/31 08:35:55;;;;;;;0.43;0.30;;;9.00;1.40;;;10.23;100.00;96063.18;647065;216;31505;-76
2021/12/31 08:38:42;;;;;;;0.50;0.30;;;9.00;1.40;;;10.29;100.00;96057.43;647229;216;31513;-80
2021/12/31 08:41:23;;;;;;;0.40;0.20;;;9.10;1.40;;;10.31;100.00;96050.85;649615;212;31767;-78
2021/12/31 08:44:08;;;;;;;0.30;0.20;;;9.10;1.40;;;10.35;100.00;96046.58;619368;225;42521;-76
2021/12/31 08:46:50;;;;;;;0.40;0.30;;;9.10;1.40;;;10.33;100.00;96046.97;646735;212;31489;-76
2021/12/31 08:49:32;;;;;;;0.40;0.30;;;9.20;1.40;;;10.38;100.00;96049.30;619340;226;31862;-76
2021/12/31 08:52:15;;;;;;;0.40;0.30;;;9.20;1.40;;;10.52;100.00;96043.86;643511;215;34674;-79
2021/12/31 08:55:03;;;;;;;0.40;0.30;;;9.30;1.40;;;10.91;100.00;96048.51;647780;216;31773;-77
2021/12/31 08:57:51;;;;;;;0.40;0.33;;;9.50;1.40;;;11.09;100.00;96053.55;647673;216;42179;-79
2021/12/31 09:00:32;;;;;;;0.60;0.40;;;9.70;1.40;;;11.10;100.00;96052.56;648360;212;31451;-78
2021/12/31 09:03:20;;;;;;;0.60;0.30;;;9.70;1.40;;;11.30;100.00;96044.75;647709;216;31500;-76
2021/12/31 09:06:08;;;;;;;0.90;0.50;;;9.80;1.40;;;11.13;100.00;96038.84;618655;226;32276;-77
2021/12/31 09:08:55;;;;;;;0.93;0.60;;;9.90;1.40;;;11.76;100.00;96030.97;646547;212;42693;-76
2021/12/31 09:11:37;;;;;;;0.60;0.50;;;10.90;1.40;;;13.46;100.00;96032.40;619152;222;32157;-77
2021/12/31 09:14:25;;;;;;;0.57;0.40;;;13.40;1.40;;;15.10;100.00;96030.94;647125;216;41857;-77
2021/12/31 09:17:07;;;;;;;0.70;0.50;;;14.20;1.40;;;16.62;100.00;96035.00;619325;226;31827;-78
2021/12/31 09:19:54;;;;;;;0.98;0.60;;;15.00;1.40;;;17.02;100.00;96032.69;646920;216;31557;-76
2021/12/31 09:22:36;;;;;;;0.60;0.40;;;14.80;1.40;;;19.44;100.00;96032.38;619952;226;31874;-77
2021/12/31 09:25:24;;;;;;;0.70;0.50;;;17.10;1.40;;;18.57;98.11;96034.31;621206;222;42465;-78
2021/12/31 09:28:11;;;;;;;0.40;0.40;;;15.10;1.40;;;18.89;100.00;96033.42;646203;216;31549;-76
2021/12/31 09:30:53;;;;;;;1.17;0.40;;;15.20;1.40;;;18.75;97.38;96033.64;645898;216;31551;-77
2021/12/31 09:35:53;;;;;;;0.40;0.30;;;17.00;1.40;;;21.82;93.97;96032.74;647109;216;31458;-78
2021/12/31 09:38:37;;;;;;;0.47;0.40;;;17.50;1.40;;;22.27;78.43;96035.98;647348;216;31495;-77
2021/12/31 09:41:19;;;;;;;0.60;0.20;;;17.20;1.40;;;21.70;78.06;96033.98;646535;212;31572;-77
2021/12/31 09:44:00;;;;;;;0.60;0.50;;;16.40;1.40;;;22.35;92.00;96035.85;646132;216;31477;-76
2021/12/31 09:46:43;;;;;;;0.70;0.47;;;17.10;1.40;;;23.14;72.84;96039.36;646928;216;31479;-77
2021/12/31 09:49:31;;;;;;;0.43;0.30;;;19.10;1.40;;;24.99;77.45;96042.94;649191;212;31472;-79
2021/12/31 09:52:19;;;;;;;0.80;0.50;;;19.90;1.40;;;25.34;77.56;96043.36;646804;216;42820;-78
2021/12/31 09:55:01;;;;;;;0.52;0.30;;;19.90;1.40;;;25.86;69.12;96043.16;631523;217;31661;-77
2021/12/31 09:57:42;;;;;;;0.60;0.50;;;20.80;1.40;;;26.79;72.23;96041.09;646995;216;31800;-77
2021/12/31 10:00:26;;;;;;;0.60;0.30;;;21.30;1.40;;;26.76;64.39;96047.94;618238;226;32175;-77
2021/12/31 10:03:15;;;;;;;0.50;0.32;;;21.60;1.40;;;26.68;64.58;96054.80;618682;226;31864;-77
2021/12/31 10:06:01;;;;;;;0.50;0.40;;;21.10;1.40;;;28.41;62.67;96048.41;615841;222;32344;-77
2021/12/31 10:08:47;;;;;;;0.50;0.30;;;22.00;1.40;;;25.70;56.16;96045.76;621264;225;31825;-77
2021/12/31 10:11:29;;;;;;;;;;;19.80;1.40;;;25.09;52.94;96045.30;649027;216;25856;-77
2021/12/31 10:14:10;;;;;;;;;;;19.60;1.40;;;23.62;62.34;96047.12;654133;216;24817;-77
2021/12/31 10:16:51;;;;;;;;;;;18.20;1.40;;;24.60;53.62;96044.86;652250;212;25026;-77
2021/12/31 10:19:38;;;;;;;;;;;18.90;1.40;;;26.12;60.84;96043.45;627454;225;24899;-77
2021/12/31 10:22:19;;;;;;;;;;;20.60;1.40;;;27.97;51.08;96028.67;638296;221;25171;-77
2021/12/31 10:25:15;;;;;;;;;;;21.20;1.40;;;27.00;49.67;96027.82;649460;217;24971;-79
2021/12/31 10:28:09;;;;;;;;;;;20.70;1.40;;;25.84;52.21;96021.86;652993;216;24824;-77
2021/12/31 10:30:51;;;;;;;;;;;19.40;1.40;;;23.69;52.85;96026.66;647930;216;24829;-77
2021/12/31 10:35:52;;;;;;;0.60;0.30;;;17.30;1.40;;;20.58;68.21;96028.90;645920;216;31532;-76
2021/12/31 10:38:36;;;;;;;0.70;0.40;;;16.60;1.40;;;22.93;70.16;96014.30;647143;212;31934;-77
2021/12/31 10:41:17;;;;;;;1.12;0.30;;;18.70;1.40;;;23.65;60.09;96005.96;647654;216;31428;-77
2021/12/31 10:44:00;;;;;;;1.87;0.40;;;19.10;1.40;;;22.98;56.69;96000.73;645649;216;31548;-77
2021/12/31 10:46:48;;;;;;;0.60;0.30;;;18.00;1.40;;;24.04;57.50;96002.23;619984;222;31971;-80
2021/12/31 10:49:36;;;;;;;0.60;0.30;;;19.10;1.40;;;23.20;57.79;95999.05;646899;216;31483;-77
2021/12/31 10:52:25;;;;;;;0.55;0.30;;;18.80;1.40;;;24.55;53.31;95985.66;648365;212;31478;-81
2021/12/31 10:58:01;;;;;;;0.65;0.30;;;20.50;1.40;;;23.53;51.70;95983.23;646021;216;31544;-76
2021/12/31 11:00:43;;;;;;;0.77;0.25;;;20.20;1.40;;;23.13;56.53;95981.31;646519;212;31492;-76
2021/12/31 11:03:28;;;;;;;0.80;0.40;;;19.80;1.40;;;21.45;58.90;95986.52;646864;216;31624;-77
2021/12/31 11:06:13;;;;;;;0.70;0.50;;;18.00;1.40;;;22.86;60.67;95982.50;641674;216;31620;-77
2021/12/31 11:08:51;;;;;;;0.70;0.50;;;19.40;1.40;;;24.23;54.96;95979.81;646488;212;31517;-76
2021/12/31 11:11:33;;;;;;;0.50;0.40;;;20.70;1.40;;;23.10;54.25;95981.99;645413;216;31499;-77
2021/12/31 11:14:17;;;;;;;0.50;0.30;;;18.90;1.40;;;22.60;57.05;95983.42;646258;216;31605;-77
2021/12/31 11:16:59;;;;;;;0.50;0.40;;;18.90;1.40;;;21.60;60.52;95984.11;631582;217;31825;-77
2021/12/31 11:19:43;;;;;;;0.60;0.40;;;18.60;1.40;;;21.28;64.39;95978.98;645847;212;31860;-76
2021/12/31 11:22:26;;;;;;;0.57;0.30;;;18.50;1.40;;;22.86;58.52;95970.31;618129;226;31835;-77
2021/12/31 11:25:21;;;;;;;0.60;0.30;;;20.00;1.40;;;22.03;58.36;95967.99;646105;216;31477;-76
2021/12/31 11:28:03;;;;;;;0.80;0.40;;;17.70;1.40;;;23.34;56.50;95968.32;647071;216;31480;-76
2021/12/31 11:30:44;;;;;;;1.05;0.40;;;19.60;1.40;;;22.48;60.79;95969.63;644946;216;32025;-76
2021/12/31 11:36:09;;;;;;;0.50;0.30;;;20.90;1.40;;;21.55;58.36;95969.53;646445;216;31564;-76
2021/12/31 11:38:50;;;;;;;0.50;0.30;;;17.90;1.40;;;22.45;59.55;95965.62;645507;216;31518;-76
2021/12/31 11:41:30;;;;;;;0.50;0.30;;;19.30;1.40;;;22.91;56.40;95963.00;618127;222;31907;-77
2021/12/31 11:44:15;;;;;;;1.48;1.00;;;19.80;1.40;;;22.54;55.20;95966.91;648063;212;31495;-76
2021/12/31 11:47:10;;;;;;;0.60;0.30;;;19.30;1.40;;;24.00;51.25;95956.97;647920;216;31833;-76
2021/12/31 11:50:18;;;;;;;0.60;0.30;;;20.40;1.40;;;23.76;50.74;95954.05;645551;216;34255;-77
2021/12/31 11:53:01;;;;;;;0.50;0.40;;;19.80;1.40;;;22.57;55.08;95946.33;646518;216;31592;-76
2021/12/31 11:55:42;;;;;;;0.70;0.40;;;19.40;1.40;;;22.54;54.97;95934.41;645835;212;31688;-76
2021/12/31 11:58:38;;;;;;;0.60;0.30;;;19.70;1.40;;;21.42;56.25;95937.86;646519;216;31535;-76
2021/12/31 12:01:52;;;;;;;0.50;0.35;;;17.80;1.40;;;20.72;62.88;95938.42;645578;212;31553;-76
2021/12/31 12:04:36;;;;;;;0.40;0.20;;;18.00;1.40;;;20.72;64.42;95934.45;646387;216;31461;-76
2021/12/31 12:07:34;;;;;;;0.70;0.30;;;18.30;1.40;;;19.87;68.17;95933.55;637389;216;31658;-76
2021/12/31 12:10:17;;;;;;;0.40;0.30;;;17.20;1.40;;;20.58;66.68;95920.73;619070;225;42582;-77
2021/12/31 12:12:57;;;;;;;0.40;0.30;;;17.50;1.40;;;20.00;70.61;95917.55;645439;216;31487;-76
2021/12/31 12:15:39;;;;;;;0.40;0.30;;;17.10;1.40;;;20.08;69.43;95907.66;647127;216;31705;-76
2021/12/31 12:18:50;;;;;;;0.40;0.20;;;17.60;1.40;;;19.33;72.13;95909.35;646687;216;31595;-76
2021/12/31 12:21:32;;;;;;;0.45;0.20;;;16.40;1.40;;;18.45;76.27;95901.23;617870;223;32059;-76